John H Macmillan Jr — WDB9907 — position and weather

sailwx.info

Track history (hours):
 
Tides and Currents Weather Stations Pressure Air Temp Water Temp Dewpoint Dewpoint Depression Visibility Wind Speed Wind Dir Waves Ship Positions

John H Macmillan Jr

More information available from US FCC via Universal Licensing System and Coast Guard Vessel Documentation Center.

Last reported at 2014-Aug-20 12:12 UTC. Time now 2014-Aug-20 14:40 UTC.
Position N 29°57' W 090°19'.

; draft 9 m.

Type: Towing. MMSI: 366984920.

Date/timePositionNaut miles runAvg speedWind from/ knotsBaromVisibWave heightAir tempDewpointWater temp
2014-Aug-20 12:12N 29°57' W 090°19'0 0.1
2014-Aug-20 11:14N 29°57' W 090°19'3 3.0
2014-Aug-20 10:20N 29°56' W 090°22'5 5.9
2014-Aug-20 09:33N 29°60' W 090°26'5 5.2
2014-Aug-20 08:33N 30°03' W 090°30'7 6.6
2014-Aug-20 07:33N 30°02' W 090°37'6 5.7
2014-Aug-20 06:33N 30°01' W 090°44'5 4.7
2014-Aug-20 05:25N 30°01' W 090°50'5 5.9
2014-Aug-20 04:31N 30°05' W 090°54'3 3.2
2014-Aug-20 03:32N 30°07' W 090°57'5 3.5
2014-Aug-20 02:06N 30°11' W 091°01'4 6.6
2014-Aug-20 01:31N 30°13' W 091°04'5 2.5
2014-Aug-19 23:31N 30°17' W 091°08'  
2014-Aug-11 07:24N 30°52' W 091°31'4 5.1
2014-Aug-11 06:33N 30°48' W 091°32'  
Track history (hours):
 
Tides and Currents Weather Stations Pressure Air Temp Water Temp Dewpoint Dewpoint Depression Visibility Wind Speed Wind Dir Waves Ship Positions

John H Macmillan Jr

More information available from US FCC via Universal Licensing System and Coast Guard Vessel Documentation Center.

Last reported at 2014-Aug-20 12:12 UTC. Time now 2014-Aug-20 14:40 UTC.
Position N 29°57' W 090°19'.

; draft 9 m.

Type: Towing. MMSI: 366984920.

Date/timePositionNaut miles runAvg speedWind from/ knotsBaromVisibWave heightAir tempDewpointWater temp
2014-Aug-20 12:12N 29°57' W 090°19'0 0.1
2014-Aug-20 11:14N 29°57' W 090°19'3 3.0
2014-Aug-20 10:20N 29°56' W 090°22'5 5.9
2014-Aug-20 09:33N 29°60' W 090°26'5 5.2
2014-Aug-20 08:33N 30°03' W 090°30'7 6.6
2014-Aug-20 07:33N 30°02' W 090°37'6 5.7
2014-Aug-20 06:33N 30°01' W 090°44'5 4.7
2014-Aug-20 05:25N 30°01' W 090°50'5 5.9
2014-Aug-20 04:31N 30°05' W 090°54'3 3.2
2014-Aug-20 03:32N 30°07' W 090°57'5 3.5
2014-Aug-20 02:06N 30°11' W 091°01'4 6.6
2014-Aug-20 01:31N 30°13' W 091°04'5 2.5
2014-Aug-19 23:31N 30°17' W 091°08'  
2014-Aug-11 07:24N 30°52' W 091°31'4 5.1
2014-Aug-11 06:33N 30°48' W 091°32'  

Dump ship's entire track history